sensor_id;sensor_type;location;lat;lon;timestamp;P1;durP1;ratioP1;P2;durP2;ratioP2
70138;SDS011;57507;43.056;0.150;2023-06-04T00:02:10;3.75;;;2.13;;
70138;SDS011;57507;43.056;0.150;2023-06-04T00:04:36;2.30;;;2.00;;
70138;SDS011;57507;43.056;0.150;2023-06-04T00:07:02;2.80;;;2.00;;
70138;SDS011;57507;43.056;0.150;2023-06-04T00:09:28;4.78;;;2.10;;
70138;SDS011;57507;43.056;0.150;2023-06-04T00:11:55;4.32;;;2.33;;
70138;SDS011;57507;43.056;0.150;2023-06-04T00:14:21;2.55;;;2.08;;
70138;SDS011;57507;43.056;0.150;2023-06-04T00:16:47;3.90;;;2.03;;
70138;SDS011;57507;43.056;0.150;2023-06-04T00:19:13;2.85;;;2.22;;
70138;SDS011;57507;43.056;0.150;2023-06-04T00:21:39;4.88;;;2.30;;
70138;SDS011;57507;43.056;0.150;2023-06-04T00:24:05;4.28;;;2.33;;
70138;SDS011;57507;43.056;0.150;2023-06-04T00:26:31;2.65;;;2.08;;
70138;SDS011;57507;43.056;0.150;2023-06-04T00:28:57;2.40;;;1.90;;
70138;SDS011;57507;43.056;0.150;2023-06-04T00:31:23;4.40;;;2.47;;
70138;SDS011;57507;43.056;0.150;2023-06-04T00:33:50;3.85;;;2.33;;
70138;SDS011;57507;43.056;0.150;2023-06-04T00:36:16;2.70;;;1.98;;
70138;SDS011;57507;43.056;0.150;2023-06-04T00:38:42;4.18;;;2.22;;
70138;SDS011;57507;43.056;0.150;2023-06-04T00:41:08;4.03;;;2.22;;
70138;SDS011;57507;43.056;0.150;2023-06-04T00:43:34;4.07;;;2.30;;
70138;SDS011;57507;43.056;0.150;2023-06-04T00:46:01;3.13;;;2.08;;
70138;SDS011;57507;43.056;0.150;2023-06-04T00:48:28;3.60;;;2.35;;
70138;SDS011;57507;43.056;0.150;2023-06-04T00:50:55;3.60;;;2.20;;
70138;SDS011;57507;43.056;0.150;2023-06-04T00:53:22;3.90;;;2.47;;
70138;SDS011;57507;43.056;0.150;2023-06-04T00:55:48;3.00;;;2.33;;
70138;SDS011;57507;43.056;0.150;2023-06-04T00:58:15;3.70;;;2.05;;
70138;SDS011;57507;43.056;0.150;2023-06-04T01:00:44;3.38;;;2.22;;
70138;SDS011;57507;43.056;0.150;2023-06-04T01:03:13;3.25;;;2.30;;
70138;SDS011;57507;43.056;0.150;2023-06-04T01:06:02;2.42;;;2.22;;
70138;SDS011;57507;43.056;0.150;2023-06-04T01:08:27;5.43;;;2.22;;
70138;SDS011;57507;43.056;0.150;2023-06-04T01:10:53;3.80;;;2.40;;
70138;SDS011;57507;43.056;0.150;2023-06-04T01:13:20;3.45;;;2.47;;
70138;SDS011;57507;43.056;0.150;2023-06-04T01:15:46;3.03;;;2.42;;
70138;SDS011;57507;43.056;0.150;2023-06-04T01:18:19;3.35;;;2.50;;
70138;SDS011;57507;43.056;0.150;2023-06-04T01:21:06;4.35;;;2.63;;
70138;SDS011;57507;43.056;0.150;2023-06-04T01:23:37;3.35;;;2.30;;
70138;SDS011;57507;43.056;0.150;2023-06-04T01:26:08;2.30;;;2.10;;
70138;SDS011;57507;43.056;0.150;2023-06-04T01:28:34;3.88;;;2.30;;
70138;SDS011;57507;43.056;0.150;2023-06-04T01:31:00;4.47;;;2.55;;
70138;SDS011;57507;43.056;0.150;2023-06-04T01:33:27;3.00;;;2.30;;
70138;SDS011;57507;43.056;0.150;2023-06-04T01:35:53;3.40;;;2.30;;
70138;SDS011;57507;43.056;0.150;2023-06-04T01:38:19;2.70;;;2.38;;
70138;SDS011;57507;43.056;0.150;2023-06-04T01:40:46;3.95;;;2.33;;
70138;SDS011;57507;43.056;0.150;2023-06-04T01:43:12;2.85;;;2.33;;
70138;SDS011;57507;43.056;0.150;2023-06-04T01:45:38;4.90;;;2.20;;
70138;SDS011;57507;43.056;0.150;2023-06-04T01:48:05;3.63;;;2.28;;
70138;SDS011;57507;43.056;0.150;2023-06-04T01:50:31;3.38;;;2.10;;
70138;SDS011;57507;43.056;0.150;2023-06-04T01:52:57;3.50;;;2.47;;
70138;SDS011;57507;43.056;0.150;2023-06-04T01:55:23;3.72;;;2.45;;
70138;SDS011;57507;43.056;0.150;2023-06-04T01:57:50;2.85;;;2.55;;
70138;SDS011;57507;43.056;0.150;2023-06-04T02:00:16;3.92;;;2.40;;
70138;SDS011;57507;43.056;0.150;2023-06-04T02:02:43;3.17;;;2.70;;
70138;SDS011;57507;43.056;0.150;2023-06-04T02:05:13;3.22;;;2.40;;
70138;SDS011;57507;43.056;0.150;2023-06-04T02:07:40;2.85;;;2.38;;
70138;SDS011;57507;43.056;0.150;2023-06-04T02:12:33;3.38;;;2.50;;
70138;SDS011;57507;43.056;0.150;2023-06-04T02:14:59;2.63;;;2.42;;
70138;SDS011;57507;43.056;0.150;2023-06-04T02:17:25;3.03;;;2.72;;
70138;SDS011;57507;43.056;0.150;2023-06-04T02:19:51;3.13;;;2.47;;
70138;SDS011;57507;43.056;0.150;2023-06-04T02:22:17;2.70;;;2.50;;
70138;SDS011;57507;43.056;0.150;2023-06-04T02:24:44;3.67;;;2.50;;
70138;SDS011;57507;43.056;0.150;2023-06-04T02:27:10;3.20;;;2.42;;
70138;SDS011;57507;43.056;0.150;2023-06-04T02:29:36;2.35;;;2.15;;
70138;SDS011;57507;43.056;0.150;2023-06-04T02:32:03;2.80;;;2.30;;
70138;SDS011;57507;43.056;0.150;2023-06-04T02:34:29;2.75;;;2.45;;
70138;SDS011;57507;43.056;0.150;2023-06-04T02:36:55;3.05;;;2.42;;
70138;SDS011;57507;43.056;0.150;2023-06-04T02:39:21;2.60;;;2.40;;
70138;SDS011;57507;43.056;0.150;2023-06-04T02:41:47;3.33;;;2.25;;
70138;SDS011;57507;43.056;0.150;2023-06-04T02:44:13;2.38;;;2.17;;
70138;SDS011;57507;43.056;0.150;2023-06-04T02:46:39;2.75;;;2.33;;
70138;SDS011;57507;43.056;0.150;2023-06-04T02:49:05;3.10;;;2.33;;
70138;SDS011;57507;43.056;0.150;2023-06-04T02:51:31;3.35;;;2.40;;
70138;SDS011;57507;43.056;0.150;2023-06-04T02:53:57;2.90;;;2.28;;
70138;SDS011;57507;43.056;0.150;2023-06-04T02:56:24;3.17;;;2.58;;
70138;SDS011;57507;43.056;0.150;2023-06-04T02:58:54;2.92;;;2.50;;
70138;SDS011;57507;43.056;0.150;2023-06-04T03:01:23;3.38;;;2.90;;
70138;SDS011;57507;43.056;0.150;2023-06-04T03:03:51;3.25;;;2.50;;
70138;SDS011;57507;43.056;0.150;2023-06-04T03:06:17;4.60;;;3.22;;
70138;SDS011;57507;43.056;0.150;2023-06-04T03:08:45;3.13;;;2.55;;
70138;SDS011;57507;43.056;0.150;2023-06-04T03:11:11;2.88;;;2.40;;
70138;SDS011;57507;43.056;0.150;2023-06-04T03:13:37;3.50;;;2.40;;
70138;SDS011;57507;43.056;0.150;2023-06-04T03:16:03;3.15;;;2.17;;
70138;SDS011;57507;43.056;0.150;2023-06-04T03:18:38;3.85;;;2.40;;
70138;SDS011;57507;43.056;0.150;2023-06-04T03:21:04;3.40;;;2.70;;
70138;SDS011;57507;43.056;0.150;2023-06-04T03:23:30;3.97;;;2.75;;
70138;SDS011;57507;43.056;0.150;2023-06-04T03:25:56;2.95;;;2.55;;
70138;SDS011;57507;43.056;0.150;2023-06-04T03:28:22;3.80;;;2.70;;
70138;SDS011;57507;43.056;0.150;2023-06-04T03:30:48;4.55;;;2.45;;
70138;SDS011;57507;43.056;0.150;2023-06-04T03:33:14;4.75;;;2.60;;
70138;SDS011;57507;43.056;0.150;2023-06-04T03:35:41;5.28;;;2.60;;
70138;SDS011;57507;43.056;0.150;2023-06-04T03:38:07;3.10;;;2.70;;
70138;SDS011;57507;43.056;0.150;2023-06-04T03:40:33;3.15;;;2.53;;
70138;SDS011;57507;43.056;0.150;2023-06-04T03:42:59;3.38;;;2.60;;
70138;SDS011;57507;43.056;0.150;2023-06-04T03:45:26;3.33;;;2.70;;
70138;SDS011;57507;43.056;0.150;2023-06-04T03:47:52;3.35;;;2.70;;
70138;SDS011;57507;43.056;0.150;2023-06-04T03:50:18;3.50;;;2.75;;
70138;SDS011;57507;43.056;0.150;2023-06-04T03:52:44;3.50;;;2.80;;
70138;SDS011;57507;43.056;0.150;2023-06-04T03:55:10;4.07;;;2.60;;
70138;SDS011;57507;43.056;0.150;2023-06-04T03:57:36;6.65;;;2.80;;
70138;SDS011;57507;43.056;0.150;2023-06-04T04:00:04;4.00;;;2.75;;
70138;SDS011;57507;43.056;0.150;2023-06-04T04:02:30;2.90;;;2.60;;
70138;SDS011;57507;43.056;0.150;2023-06-04T04:04:57;3.85;;;2.95;;
70138;SDS011;57507;43.056;0.150;2023-06-04T04:07:23;4.60;;;2.53;;
70138;SDS011;57507;43.056;0.150;2023-06-04T04:09:50;3.50;;;2.90;;
70138;SDS011;57507;43.056;0.150;2023-06-04T04:12:16;3.38;;;2.85;;
70138;SDS011;57507;43.056;0.150;2023-06-04T04:14:42;3.53;;;2.70;;
70138;SDS011;57507;43.056;0.150;2023-06-04T04:17:08;3.30;;;2.80;;
70138;SDS011;57507;43.056;0.150;2023-06-04T04:19:35;3.17;;;2.70;;
70138;SDS011;57507;43.056;0.150;2023-06-04T04:22:01;2.85;;;2.55;;
70138;SDS011;57507;43.056;0.150;2023-06-04T04:24:27;3.65;;;2.65;;
70138;SDS011;57507;43.056;0.150;2023-06-04T04:26:54;3.65;;;2.88;;
70138;SDS011;57507;43.056;0.150;2023-06-04T04:29:20;5.47;;;2.83;;
70138;SDS011;57507;43.056;0.150;2023-06-04T04:31:53;4.03;;;2.78;;
70138;SDS011;57507;43.056;0.150;2023-06-04T04:34:22;3.70;;;2.65;;
70138;SDS011;57507;43.056;0.150;2023-06-04T04:36:49;5.15;;;2.90;;
70138;SDS011;57507;43.056;0.150;2023-06-04T04:39:17;3.20;;;2.45;;
70138;SDS011;57507;43.056;0.150;2023-06-04T04:41:43;2.90;;;2.60;;
70138;SDS011;57507;43.056;0.150;2023-06-04T04:44:09;4.00;;;2.80;;
70138;SDS011;57507;43.056;0.150;2023-06-04T04:46:35;3.92;;;2.90;;
70138;SDS011;57507;43.056;0.150;2023-06-04T04:49:01;3.80;;;2.90;;
70138;SDS011;57507;43.056;0.150;2023-06-04T04:51:27;3.15;;;2.60;;
70138;SDS011;57507;43.056;0.150;2023-06-04T04:53:53;5.03;;;2.95;;
70138;SDS011;57507;43.056;0.150;2023-06-04T04:56:20;2.90;;;2.60;;
70138;SDS011;57507;43.056;0.150;2023-06-04T04:58:47;3.50;;;2.92;;
70138;SDS011;57507;43.056;0.150;2023-06-04T05:01:13;3.47;;;3.08;;
70138;SDS011;57507;43.056;0.150;2023-06-04T05:03:39;4.65;;;2.88;;
70138;SDS011;57507;43.056;0.150;2023-06-04T05:06:05;4.40;;;3.30;;
70138;SDS011;57507;43.056;0.150;2023-06-04T05:08:31;3.53;;;2.80;;
70138;SDS011;57507;43.056;0.150;2023-06-04T05:10:57;3.40;;;2.80;;
70138;SDS011;57507;43.056;0.150;2023-06-04T05:13:24;3.72;;;2.60;;
70138;SDS011;57507;43.056;0.150;2023-06-04T05:15:50;4.50;;;3.10;;
70138;SDS011;57507;43.056;0.150;2023-06-04T05:18:17;3.70;;;2.78;;
70138;SDS011;57507;43.056;0.150;2023-06-04T05:20:47;4.80;;;3.38;;
70138;SDS011;57507;43.056;0.150;2023-06-04T05:23:13;5.03;;;3.05;;
70138;SDS011;57507;43.056;0.150;2023-06-04T05:25:39;3.92;;;2.92;;
70138;SDS011;57507;43.056;0.150;2023-06-04T05:28:06;3.50;;;3.10;;
70138;SDS011;57507;43.056;0.150;2023-06-04T05:30:32;4.20;;;2.85;;
70138;SDS011;57507;43.056;0.150;2023-06-04T05:33:01;3.30;;;2.83;;
70138;SDS011;57507;43.056;0.150;2023-06-04T05:35:27;5.78;;;3.35;;
70138;SDS011;57507;43.056;0.150;2023-06-04T05:37:53;3.30;;;3.00;;
70138;SDS011;57507;43.056;0.150;2023-06-04T05:40:22;4.93;;;3.15;;
70138;SDS011;57507;43.056;0.150;2023-06-04T05:42:48;5.15;;;3.10;;
70138;SDS011;57507;43.056;0.150;2023-06-04T05:45:14;3.58;;;2.97;;
70138;SDS011;57507;43.056;0.150;2023-06-04T05:47:40;4.32;;;3.03;;
70138;SDS011;57507;43.056;0.150;2023-06-04T05:50:06;3.50;;;2.88;;
70138;SDS011;57507;43.056;0.150;2023-06-04T05:52:33;3.38;;;2.72;;
70138;SDS011;57507;43.056;0.150;2023-06-04T05:55:00;3.25;;;2.80;;
70138;SDS011;57507;43.056;0.150;2023-06-04T05:57:26;4.40;;;3.15;;
70138;SDS011;57507;43.056;0.150;2023-06-04T05:59:52;3.88;;;3.15;;
70138;SDS011;57507;43.056;0.150;2023-06-04T06:02:18;4.15;;;3.10;;
70138;SDS011;57507;43.056;0.150;2023-06-04T06:04:44;3.22;;;2.83;;
70138;SDS011;57507;43.056;0.150;2023-06-04T06:07:10;4.05;;;2.90;;
70138;SDS011;57507;43.056;0.150;2023-06-04T06:09:37;3.08;;;2.75;;
70138;SDS011;57507;43.056;0.150;2023-06-04T06:12:03;4.32;;;3.13;;
70138;SDS011;57507;43.056;0.150;2023-06-04T06:14:30;6.55;;;3.72;;
70138;SDS011;57507;43.056;0.150;2023-06-04T06:16:56;4.82;;;3.33;;
70138;SDS011;57507;43.056;0.150;2023-06-04T06:19:22;3.88;;;3.15;;
70138;SDS011;57507;43.056;0.150;2023-06-04T06:21:48;3.47;;;2.90;;
70138;SDS011;57507;43.056;0.150;2023-06-04T06:24:14;4.75;;;3.20;;
70138;SDS011;57507;43.056;0.150;2023-06-04T06:26:40;5.93;;;3.47;;
70138;SDS011;57507;43.056;0.150;2023-06-04T06:29:07;5.55;;;3.50;;
70138;SDS011;57507;43.056;0.150;2023-06-04T06:31:33;4.18;;;3.00;;
70138;SDS011;57507;43.056;0.150;2023-06-04T06:33:59;4.53;;;3.38;;
70138;SDS011;57507;43.056;0.150;2023-06-04T06:36:25;5.28;;;3.63;;
70138;SDS011;57507;43.056;0.150;2023-06-04T06:38:53;6.88;;;2.78;;
70138;SDS011;57507;43.056;0.150;2023-06-04T06:41:19;3.42;;;2.72;;
70138;SDS011;57507;43.056;0.150;2023-06-04T06:43:46;5.35;;;3.75;;
70138;SDS011;57507;43.056;0.150;2023-06-04T06:46:12;4.85;;;3.42;;
70138;SDS011;57507;43.056;0.150;2023-06-04T06:48:38;4.55;;;3.00;;
70138;SDS011;57507;43.056;0.150;2023-06-04T06:51:04;4.45;;;3.47;;
70138;SDS011;57507;43.056;0.150;2023-06-04T06:53:30;4.22;;;3.30;;
70138;SDS011;57507;43.056;0.150;2023-06-04T06:55:56;4.38;;;3.13;;
70138;SDS011;57507;43.056;0.150;2023-06-04T06:58:22;3.83;;;3.03;;
70138;SDS011;57507;43.056;0.150;2023-06-04T07:00:48;4.10;;;2.92;;
70138;SDS011;57507;43.056;0.150;2023-06-04T07:03:14;3.90;;;3.05;;
70138;SDS011;57507;43.056;0.150;2023-06-04T07:05:40;4.15;;;3.30;;
70138;SDS011;57507;43.056;0.150;2023-06-04T07:08:06;6.00;;;3.00;;
70138;SDS011;57507;43.056;0.150;2023-06-04T07:10:32;4.50;;;3.28;;
70138;SDS011;57507;43.056;0.150;2023-06-04T07:12:58;8.15;;;3.28;;
70138;SDS011;57507;43.056;0.150;2023-06-04T07:15:24;3.15;;;2.22;;
70138;SDS011;57507;43.056;0.150;2023-06-04T07:17:50;4.45;;;2.80;;
70138;SDS011;57507;43.056;0.150;2023-06-04T07:20:16;3.42;;;2.38;;
70138;SDS011;57507;43.056;0.150;2023-06-04T07:22:43;3.78;;;2.45;;
70138;SDS011;57507;43.056;0.150;2023-06-04T07:25:09;3.83;;;2.45;;
70138;SDS011;57507;43.056;0.150;2023-06-04T07:27:35;3.05;;;2.33;;
70138;SDS011;57507;43.056;0.150;2023-06-04T07:30:01;3.85;;;2.70;;
70138;SDS011;57507;43.056;0.150;2023-06-04T07:32:27;3.00;;;2.28;;
70138;SDS011;57507;43.056;0.150;2023-06-04T07:34:53;3.40;;;2.45;;
70138;SDS011;57507;43.056;0.150;2023-06-04T07:37:19;4.80;;;2.95;;
70138;SDS011;57507;43.056;0.150;2023-06-04T07:39:45;3.17;;;2.50;;
70138;SDS011;57507;43.056;0.150;2023-06-04T07:42:11;3.55;;;2.50;;
70138;SDS011;57507;43.056;0.150;2023-06-04T07:44:37;3.88;;;2.72;;
70138;SDS011;57507;43.056;0.150;2023-06-04T07:47:03;3.40;;;2.60;;
70138;SDS011;57507;43.056;0.150;2023-06-04T07:49:30;3.03;;;2.45;;
70138;SDS011;57507;43.056;0.150;2023-06-04T07:51:56;2.90;;;2.38;;
70138;SDS011;57507;43.056;0.150;2023-06-04T07:54:22;2.90;;;2.40;;
70138;SDS011;57507;43.056;0.150;2023-06-04T07:56:48;3.70;;;2.42;;
70138;SDS011;57507;43.056;0.150;2023-06-04T07:59:20;3.90;;;2.20;;
70138;SDS011;57507;43.056;0.150;2023-06-04T08:01:46;2.40;;;2.20;;
70138;SDS011;57507;43.056;0.150;2023-06-04T08:04:12;2.95;;;2.40;;
70138;SDS011;57507;43.056;0.150;2023-06-04T08:06:38;3.15;;;2.30;;
70138;SDS011;57507;43.056;0.150;2023-06-04T08:09:04;3.28;;;2.50;;
70138;SDS011;57507;43.056;0.150;2023-06-04T08:11:32;3.17;;;2.58;;
70138;SDS011;57507;43.056;0.150;2023-06-04T08:13:58;5.30;;;2.47;;
70138;SDS011;57507;43.056;0.150;2023-06-04T08:16:24;2.90;;;2.10;;
70138;SDS011;57507;43.056;0.150;2023-06-04T08:18:50;2.65;;;2.15;;
70138;SDS011;57507;43.056;0.150;2023-06-04T08:21:24;2.10;;;1.90;;
70138;SDS011;57507;43.056;0.150;2023-06-04T08:23:50;2.95;;;2.22;;
70138;SDS011;57507;43.056;0.150;2023-06-04T08:26:16;3.50;;;2.40;;
70138;SDS011;57507;43.056;0.150;2023-06-04T08:28:42;2.85;;;2.35;;
70138;SDS011;57507;43.056;0.150;2023-06-04T08:31:08;3.17;;;2.63;;
70138;SDS011;57507;43.056;0.150;2023-06-04T08:33:34;2.97;;;2.05;;
70138;SDS011;57507;43.056;0.150;2023-06-04T08:36:00;3.00;;;2.03;;
70138;SDS011;57507;43.056;0.150;2023-06-04T08:38:26;4.38;;;2.30;;
70138;SDS011;57507;43.056;0.150;2023-06-04T08:40:53;3.42;;;1.98;;
70138;SDS011;57507;43.056;0.150;2023-06-04T08:43:21;4.55;;;2.10;;
70138;SDS011;57507;43.056;0.150;2023-06-04T08:45:48;2.25;;;1.90;;
70138;SDS011;57507;43.056;0.150;2023-06-04T08:48:18;2.05;;;1.80;;
70138;SDS011;57507;43.056;0.150;2023-06-04T08:50:45;2.28;;;1.80;;
70138;SDS011;57507;43.056;0.150;2023-06-04T08:53:13;2.65;;;2.03;;
70138;SDS011;57507;43.056;0.150;2023-06-04T08:55:41;2.65;;;1.92;;
70138;SDS011;57507;43.056;0.150;2023-06-04T08:58:07;1.92;;;1.70;;
70138;SDS011;57507;43.056;0.150;2023-06-04T09:00:35;2.78;;;2.05;;
70138;SDS011;57507;43.056;0.150;2023-06-04T09:03:01;2.10;;;1.80;;
70138;SDS011;57507;43.056;0.150;2023-06-04T09:05:31;2.50;;;2.05;;
70138;SDS011;57507;43.056;0.150;2023-06-04T09:07:59;2.72;;;2.03;;
70138;SDS011;57507;43.056;0.150;2023-06-04T09:10:26;2.28;;;1.95;;
70138;SDS011;57507;43.056;0.150;2023-06-04T09:12:56;2.25;;;1.90;;
70138;SDS011;57507;43.056;0.150;2023-06-04T09:15:23;2.85;;;1.90;;
70138;SDS011;57507;43.056;0.150;2023-06-04T09:17:49;2.70;;;2.28;;
70138;SDS011;57507;43.056;0.150;2023-06-04T09:20:18;1.85;;;1.63;;
70138;SDS011;57507;43.056;0.150;2023-06-04T09:22:44;3.17;;;2.13;;
70138;SDS011;57507;43.056;0.150;2023-06-04T09:25:19;2.42;;;1.88;;
70138;SDS011;57507;43.056;0.150;2023-06-04T09:27:45;2.17;;;1.60;;
70138;SDS011;57507;43.056;0.150;2023-06-04T09:30:11;2.65;;;2.10;;
70138;SDS011;57507;43.056;0.150;2023-06-04T09:32:37;5.13;;;2.20;;
70138;SDS011;57507;43.056;0.150;2023-06-04T09:37:42;3.65;;;2.42;;
70138;SDS011;57507;43.056;0.150;2023-06-04T09:40:08;2.60;;;2.20;;
70138;SDS011;57507;43.056;0.150;2023-06-04T09:42:41;2.63;;;1.98;;
70138;SDS011;57507;43.056;0.150;2023-06-04T09:45:08;1.98;;;1.83;;
70138;SDS011;57507;43.056;0.150;2023-06-04T09:47:41;2.53;;;1.90;;
70138;SDS011;57507;43.056;0.150;2023-06-04T09:50:08;3.65;;;2.38;;
70138;SDS011;57507;43.056;0.150;2023-06-04T09:52:34;2.10;;;1.90;;
70138;SDS011;57507;43.056;0.150;2023-06-04T09:55:01;3.33;;;2.08;;
70138;SDS011;57507;43.056;0.150;2023-06-04T09:57:28;2.42;;;2.05;;
70138;SDS011;57507;43.056;0.150;2023-06-04T09:59:57;4.18;;;2.15;;
70138;SDS011;57507;43.056;0.150;2023-06-04T10:02:24;2.20;;;2.00;;
70138;SDS011;57507;43.056;0.150;2023-06-04T10:04:53;3.42;;;2.30;;
70138;SDS011;57507;43.056;0.150;2023-06-04T10:07:22;2.28;;;1.90;;
70138;SDS011;57507;43.056;0.150;2023-06-04T10:09:48;5.38;;;2.90;;
70138;SDS011;57507;43.056;0.150;2023-06-04T10:12:15;3.33;;;2.33;;
70138;SDS011;57507;43.056;0.150;2023-06-04T10:14:52;3.83;;;2.40;;
70138;SDS011;57507;43.056;0.150;2023-06-04T10:17:19;2.60;;;2.40;;
70138;SDS011;57507;43.056;0.150;2023-06-04T10:19:46;3.03;;;2.35;;
70138;SDS011;57507;43.056;0.150;2023-06-04T10:22:13;6.10;;;2.47;;
70138;SDS011;57507;43.056;0.150;2023-06-04T10:24:39;3.00;;;2.70;;
70138;SDS011;57507;43.056;0.150;2023-06-04T10:27:06;2.97;;;2.40;;
70138;SDS011;57507;43.056;0.150;2023-06-04T10:29:36;2.50;;;2.30;;
70138;SDS011;57507;43.056;0.150;2023-06-04T10:32:02;3.17;;;2.60;;
70138;SDS011;57507;43.056;0.150;2023-06-04T10:34:29;3.17;;;2.25;;
70138;SDS011;57507;43.056;0.150;2023-06-04T10:36:56;2.45;;;2.25;;
70138;SDS011;57507;43.056;0.150;2023-06-04T10:39:29;3.28;;;2.38;;
70138;SDS011;57507;43.056;0.150;2023-06-04T10:42:00;2.40;;;2.20;;
70138;SDS011;57507;43.056;0.150;2023-06-04T10:44:27;2.53;;;2.10;;
70138;SDS011;57507;43.056;0.150;2023-06-04T10:46:53;3.50;;;2.30;;
70138;SDS011;57507;43.056;0.150;2023-06-04T10:49:28;2.70;;;2.38;;
70138;SDS011;57507;43.056;0.150;2023-06-04T10:51:55;2.30;;;2.00;;
70138;SDS011;57507;43.056;0.150;2023-06-04T10:54:28;4.05;;;2.03;;
70138;SDS011;57507;43.056;0.150;2023-06-04T10:56:54;5.20;;;2.47;;
70138;SDS011;57507;43.056;0.150;2023-06-04T10:59:20;3.60;;;2.38;;
70138;SDS011;57507;43.056;0.150;2023-06-04T11:01:46;5.80;;;2.50;;
70138;SDS011;57507;43.056;0.150;2023-06-04T11:04:22;2.92;;;2.33;;
70138;SDS011;57507;43.056;0.150;2023-06-04T11:07:01;3.17;;;2.63;;
70138;SDS011;57507;43.056;0.150;2023-06-04T11:09:28;3.38;;;2.20;;
70138;SDS011;57507;43.056;0.150;2023-06-04T11:12:00;3.08;;;2.40;;
70138;SDS011;57507;43.056;0.150;2023-06-04T11:14:26;3.90;;;2.50;;
70138;SDS011;57507;43.056;0.150;2023-06-04T11:16:52;2.65;;;1.90;;
70138;SDS011;57507;43.056;0.150;2023-06-04T11:19:19;2.58;;;2.15;;
70138;SDS011;57507;43.056;0.150;2023-06-04T11:21:45;2.45;;;2.25;;
70138;SDS011;57507;43.056;0.150;2023-06-04T11:24:12;3.55;;;2.30;;
70138;SDS011;57507;43.056;0.150;2023-06-04T11:26:38;2.80;;;2.53;;
70138;SDS011;57507;43.056;0.150;2023-06-04T11:29:08;2.35;;;2.17;;
70138;SDS011;57507;43.056;0.150;2023-06-04T11:31:42;2.17;;;1.83;;
70138;SDS011;57507;43.056;0.150;2023-06-04T11:34:09;2.35;;;2.15;;
70138;SDS011;57507;43.056;0.150;2023-06-04T11:36:38;3.17;;;2.38;;
70138;SDS011;57507;43.056;0.150;2023-06-04T11:39:04;3.10;;;2.20;;
70138;SDS011;57507;43.056;0.150;2023-06-04T11:41:32;2.50;;;2.30;;
70138;SDS011;57507;43.056;0.150;2023-06-04T11:44:01;3.25;;;2.58;;
70138;SDS011;57507;43.056;0.150;2023-06-04T11:46:28;3.75;;;2.50;;
70138;SDS011;57507;43.056;0.150;2023-06-04T11:48:54;2.45;;;2.20;;
70138;SDS011;57507;43.056;0.150;2023-06-04T11:51:21;3.33;;;2.60;;
70138;SDS011;57507;43.056;0.150;2023-06-04T11:53:47;3.05;;;2.28;;
70138;SDS011;57507;43.056;0.150;2023-06-04T11:56:13;3.38;;;2.53;;
70138;SDS011;57507;43.056;0.150;2023-06-04T11:58:40;3.53;;;2.75;;
70138;SDS011;57507;43.056;0.150;2023-06-04T12:01:06;2.97;;;2.60;;
70138;SDS011;57507;43.056;0.150;2023-06-04T12:03:34;2.78;;;2.55;;
70138;SDS011;57507;43.056;0.150;2023-06-04T12:06:17;3.13;;;2.60;;
70138;SDS011;57507;43.056;0.150;2023-06-04T12:08:44;3.08;;;2.63;;
70138;SDS011;57507;43.056;0.150;2023-06-04T12:11:22;2.97;;;2.63;;
70138;SDS011;57507;43.056;0.150;2023-06-04T12:13:48;2.95;;;2.45;;
70138;SDS011;57507;43.056;0.150;2023-06-04T12:16:14;3.35;;;2.65;;
70138;SDS011;57507;43.056;0.150;2023-06-04T12:18:40;4.00;;;2.78;;
70138;SDS011;57507;43.056;0.150;2023-06-04T12:21:16;2.80;;;2.60;;
70138;SDS011;57507;43.056;0.150;2023-06-04T12:23:44;3.97;;;2.63;;
70138;SDS011;57507;43.056;0.150;2023-06-04T12:26:20;3.13;;;2.80;;
70138;SDS011;57507;43.056;0.150;2023-06-04T12:31:38;4.07;;;3.13;;
70138;SDS011;57507;43.056;0.150;2023-06-04T12:34:05;4.75;;;2.90;;
70138;SDS011;57507;43.056;0.150;2023-06-04T12:36:31;4.07;;;3.10;;
70138;SDS011;57507;43.056;0.150;2023-06-04T12:38:59;5.22;;;3.00;;
70138;SDS011;57507;43.056;0.150;2023-06-04T12:41:26;3.78;;;2.90;;
70138;SDS011;57507;43.056;0.150;2023-06-04T12:43:52;2.90;;;2.30;;
70138;SDS011;57507;43.056;0.150;2023-06-04T12:46:18;3.42;;;2.60;;
70138;SDS011;57507;43.056;0.150;2023-06-04T12:48:45;4.43;;;2.55;;
70138;SDS011;57507;43.056;0.150;2023-06-04T12:51:11;3.95;;;2.67;;
70138;SDS011;57507;43.056;0.150;2023-06-04T12:53:43;5.38;;;2.65;;
70138;SDS011;57507;43.056;0.150;2023-06-04T12:56:09;4.55;;;2.78;;
70138;SDS011;57507;43.056;0.150;2023-06-04T12:58:36;2.38;;;2.17;;
70138;SDS011;57507;43.056;0.150;2023-06-04T13:01:02;3.42;;;1.95;;
70138;SDS011;57507;43.056;0.150;2023-06-04T13:03:29;3.80;;;1.80;;
70138;SDS011;57507;43.056;0.150;2023-06-04T13:05:55;2.42;;;1.67;;
70138;SDS011;57507;43.056;0.150;2023-06-04T13:08:22;6.47;;;1.55;;
70138;SDS011;57507;43.056;0.150;2023-06-04T13:10:49;2.33;;;1.45;;
70138;SDS011;57507;43.056;0.150;2023-06-04T13:13:16;1.60;;;1.30;;
70138;SDS011;57507;43.056;0.150;2023-06-04T13:15:42;2.05;;;1.17;;
70138;SDS011;57507;43.056;0.150;2023-06-04T13:18:10;2.13;;;1.17;;
70138;SDS011;57507;43.056;0.150;2023-06-04T13:20:37;3.10;;;0.80;;
70138;SDS011;57507;43.056;0.150;2023-06-04T13:23:03;1.70;;;1.05;;
70138;SDS011;57507;43.056;0.150;2023-06-04T13:25:29;2.17;;;1.10;;
70138;SDS011;57507;43.056;0.150;2023-06-04T13:27:57;3.47;;;0.85;;
70138;SDS011;57507;43.056;0.150;2023-06-04T13:30:23;2.35;;;1.00;;
70138;SDS011;57507;43.056;0.150;2023-06-04T13:32:49;2.03;;;0.93;;
70138;SDS011;57507;43.056;0.150;2023-06-04T13:35:17;5.18;;;1.30;;
70138;SDS011;57507;43.056;0.150;2023-06-04T13:37:43;1.92;;;1.00;;
70138;SDS011;57507;43.056;0.150;2023-06-04T13:40:09;1.15;;;0.82;;
70138;SDS011;57507;43.056;0.150;2023-06-04T13:42:35;1.60;;;0.93;;
70138;SDS011;57507;43.056;0.150;2023-06-04T13:45:01;2.97;;;1.23;;
70138;SDS011;57507;43.056;0.150;2023-06-04T13:47:27;1.65;;;1.00;;
70138;SDS011;57507;43.056;0.150;2023-06-04T13:49:53;1.38;;;0.93;;
70138;SDS011;57507;43.056;0.150;2023-06-04T13:52:19;1.75;;;1.00;;
70138;SDS011;57507;43.056;0.150;2023-06-04T13:54:46;1.33;;;0.77;;
70138;SDS011;57507;43.056;0.150;2023-06-04T13:57:12;3.03;;;1.00;;
70138;SDS011;57507;43.056;0.150;2023-06-04T13:59:38;1.25;;;1.00;;
70138;SDS011;57507;43.056;0.150;2023-06-04T14:02:04;2.92;;;1.30;;
70138;SDS011;57507;43.056;0.150;2023-06-04T14:04:30;1.92;;;1.13;;
70138;SDS011;57507;43.056;0.150;2023-06-04T14:06:56;1.90;;;1.52;;
70138;SDS011;57507;43.056;0.150;2023-06-04T14:09:23;2.47;;;1.38;;
70138;SDS011;57507;43.056;0.150;2023-06-04T14:11:49;1.40;;;0.93;;
70138;SDS011;57507;43.056;0.150;2023-06-04T14:14:19;1.20;;;1.10;;
70138;SDS011;57507;43.056;0.150;2023-06-04T14:16:46;1.92;;;1.02;;
70138;SDS011;57507;43.056;0.150;2023-06-04T14:19:12;1.35;;;1.10;;
70138;SDS011;57507;43.056;0.150;2023-06-04T14:21:39;3.35;;;1.17;;
70138;SDS011;57507;43.056;0.150;2023-06-04T14:24:05;2.08;;;1.00;;
70138;SDS011;57507;43.056;0.150;2023-06-04T14:26:32;1.27;;;0.70;;
70138;SDS011;57507;43.056;0.150;2023-06-04T14:28:58;1.25;;;1.02;;
70138;SDS011;57507;43.056;0.150;2023-06-04T14:31:24;1.23;;;0.88;;
70138;SDS011;57507;43.056;0.150;2023-06-04T14:33:50;2.58;;;1.13;;
70138;SDS011;57507;43.056;0.150;2023-06-04T14:36:16;1.20;;;1.00;;
70138;SDS011;57507;43.056;0.150;2023-06-04T14:38:43;1.88;;;1.27;;
70138;SDS011;57507;43.056;0.150;2023-06-04T14:41:10;2.00;;;1.20;;
70138;SDS011;57507;43.056;0.150;2023-06-04T14:43:36;1.63;;;1.35;;
70138;SDS011;57507;43.056;0.150;2023-06-04T14:46:02;1.10;;;1.00;;
70138;SDS011;57507;43.056;0.150;2023-06-04T14:48:28;1.63;;;1.00;;
70138;SDS011;57507;43.056;0.150;2023-06-04T14:50:54;1.73;;;1.05;;
70138;SDS011;57507;43.056;0.150;2023-06-04T14:53:21;1.67;;;1.20;;
70138;SDS011;57507;43.056;0.150;2023-06-04T14:55:47;1.45;;;1.30;;